createdAt,value
2018-10-05T00:01:52.474Z,11.18
2018-10-05T00:04:20.969Z,11.09
2018-10-05T00:06:49.510Z,11.11
2018-10-05T00:09:18.018Z,11.14
2018-10-05T00:11:46.551Z,11.14
2018-10-05T00:14:15.871Z,11.06
2018-10-05T00:16:44.417Z,11.02
2018-10-05T00:19:13.009Z,11.03
2018-10-05T00:21:42.264Z,11.05
2018-10-05T00:24:10.850Z,11.00
2018-10-05T00:26:40.055Z,10.93
2018-10-05T00:29:08.589Z,10.97
2018-10-05T00:31:38.134Z,10.93
2018-10-05T00:34:06.677Z,10.93
2018-10-05T00:36:35.191Z,10.87
2018-10-05T00:39:04.655Z,10.80
2018-10-05T00:41:33.186Z,10.68
2018-10-05T00:44:01.746Z,10.71
2018-10-05T00:47:02.010Z,10.70
2018-10-05T00:49:30.567Z,10.70
2018-10-05T00:51:59.800Z,10.65
2018-10-05T00:54:28.330Z,10.58
2018-10-05T00:56:56.879Z,10.60
2018-10-05T00:59:25.479Z,10.66
2018-10-05T01:01:54.092Z,10.64
2018-10-05T01:04:22.535Z,10.60
2018-10-05T01:06:51.163Z,10.58
2018-10-05T01:09:19.678Z,10.61
2018-10-05T01:11:48.187Z,10.56
2018-10-05T01:14:16.735Z,10.49
2018-10-05T01:16:45.298Z,10.50
2018-10-05T01:19:14.043Z,10.46
2018-10-05T01:21:42.567Z,10.41
2018-10-05T01:24:11.079Z,10.41
2018-10-05T01:26:39.636Z,10.37
2018-10-05T01:29:08.143Z,10.42
2018-10-05T01:31:36.682Z,10.42
2018-10-05T01:34:05.228Z,10.38
2018-10-05T01:36:33.756Z,10.38
2018-10-05T01:39:02.619Z,10.40
2018-10-05T01:41:31.203Z,10.46
2018-10-05T01:43:59.781Z,10.50
2018-10-05T01:46:28.332Z,10.47
2018-10-05T01:48:56.821Z,10.44
2018-10-05T01:51:35.601Z,10.37
2018-10-05T01:54:05.859Z,10.36
2018-10-05T01:56:35.044Z,10.39
2018-10-05T01:59:03.956Z,10.34
2018-10-05T02:01:33.046Z,10.34
2018-10-05T02:04:01.832Z,10.42
2018-10-05T02:06:30.362Z,10.34
2018-10-05T02:08:58.954Z,10.33
2018-10-05T02:11:27.950Z,10.32
2018-10-05T02:13:56.471Z,10.31
2018-10-05T02:16:25.056Z,10.33
2018-10-05T02:18:53.573Z,10.35
2018-10-05T02:21:22.069Z,10.33
2018-10-05T02:23:50.617Z,10.37
2018-10-05T02:26:19.130Z,10.36
2018-10-05T02:28:47.633Z,10.34
2018-10-05T02:31:16.192Z,10.33
2018-10-05T02:33:44.797Z,10.34
2018-10-05T02:36:13.345Z,10.29
2018-10-05T02:38:41.897Z,10.25
2018-10-05T02:41:10.498Z,10.25
2018-10-05T02:43:39.067Z,10.28
2018-10-05T02:46:07.629Z,10.29
2018-10-05T02:48:36.635Z,10.34
2018-10-05T02:51:05.411Z,10.35
2018-10-05T02:53:34.004Z,10.37
2018-10-05T02:56:02.578Z,10.35
2018-10-05T02:58:31.145Z,10.34
2018-10-05T03:01:11.246Z,10.32
2018-10-05T03:03:39.891Z,10.36
2018-10-05T03:06:08.411Z,10.34
2018-10-05T03:08:36.946Z,10.36
2018-10-05T03:11:06.933Z,10.39
2018-10-05T03:13:35.674Z,10.43
2018-10-05T03:16:04.304Z,10.40
2018-10-05T03:18:32.871Z,10.41
2018-10-05T03:21:01.639Z,10.44
2018-10-05T03:23:30.191Z,10.37
2018-10-05T03:25:58.852Z,10.38
2018-10-05T03:28:59.868Z,10.43
2018-10-05T03:31:28.443Z,10.40
2018-10-05T03:33:57.024Z,10.40
2018-10-05T03:36:25.522Z,10.39
2018-10-05T03:38:54.253Z,10.39
2018-10-05T03:41:22.962Z,10.35
2018-10-05T03:43:51.537Z,10.33
2018-10-05T03:46:20.095Z,10.37
2018-10-05T03:48:48.750Z,10.36
2018-10-05T03:51:17.333Z,10.33
2018-10-05T03:53:45.931Z,10.29
2018-10-05T03:56:14.619Z,10.31
2018-10-05T03:58:43.263Z,10.30
2018-10-05T04:01:11.843Z,10.27
2018-10-05T04:03:40.388Z,10.23
2018-10-05T04:06:09.499Z,10.26
2018-10-05T04:08:38.113Z,10.21
2018-10-05T04:11:06.748Z,10.22
2018-10-05T04:13:35.291Z,10.26
2018-10-05T04:16:03.880Z,10.24
2018-10-05T04:18:32.423Z,10.25
2018-10-05T04:21:01.027Z,10.28
2018-10-05T04:23:30.334Z,10.17
2018-10-05T04:25:58.864Z,10.17
2018-10-05T04:28:27.423Z,10.13
2018-10-05T04:30:56.020Z,10.13
2018-10-05T04:33:24.682Z,10.13
2018-10-05T04:35:53.264Z,10.14
2018-10-05T04:38:21.834Z,10.09
2018-10-05T04:40:50.355Z,10.09
2018-10-05T04:43:18.956Z,10.08
2018-10-05T04:45:47.511Z,10.07
2018-10-05T04:48:16.091Z,10.08
2018-10-05T04:50:44.677Z,10.13
2018-10-05T04:53:13.211Z,10.01
2018-10-05T04:55:41.811Z,9.97
2018-10-05T04:58:10.840Z,10.04
2018-10-05T05:00:39.459Z,10.07
2018-10-05T05:03:08.152Z,10.01
2018-10-05T05:05:36.661Z,10.06
2018-10-05T05:08:05.197Z,10.09
2018-10-05T05:10:33.758Z,10.11
2018-10-05T05:13:02.262Z,10.12
2018-10-05T05:15:30.839Z,10.16
2018-10-05T05:17:59.422Z,10.15
2018-10-05T05:20:27.962Z,10.21
2018-10-05T05:22:56.515Z,10.20
2018-10-05T05:25:25.093Z,10.19
2018-10-05T05:27:53.678Z,10.13
2018-10-05T05:30:22.495Z,10.11
2018-10-05T05:32:51.014Z,10.15
2018-10-05T05:35:19.684Z,10.06
2018-10-05T05:37:48.222Z,10.02
2018-10-05T05:40:16.848Z,10.12
2018-10-05T05:42:45.449Z,10.09
2018-10-05T05:45:14.177Z,10.10
2018-10-05T05:47:42.709Z,10.08
2018-10-05T05:50:11.295Z,10.14
2018-10-05T05:52:39.808Z,10.07
2018-10-05T05:55:08.361Z,10.08
2018-10-05T05:57:36.959Z,10.08
2018-10-05T06:00:05.636Z,10.13
2018-10-05T06:02:34.183Z,10.14
2018-10-05T06:05:02.723Z,10.13
2018-10-05T06:07:31.266Z,10.12
2018-10-05T06:09:59.908Z,10.13
2018-10-05T06:12:28.447Z,10.18
2018-10-05T06:14:56.983Z,10.20
2018-10-05T06:17:25.537Z,10.30
2018-10-05T06:19:54.066Z,10.28
2018-10-05T06:22:22.905Z,10.32
2018-10-05T06:24:51.142Z,10.37
2018-10-05T06:27:19.772Z,10.41
2018-10-05T06:29:48.652Z,10.46
2018-10-05T06:32:17.190Z,10.52
2018-10-05T06:34:45.736Z,10.62
2018-10-05T06:37:14.358Z,10.65
2018-10-05T06:39:42.902Z,10.70
2018-10-05T06:42:11.585Z,10.78
2018-10-05T06:44:40.151Z,10.83
2018-10-05T06:47:09.667Z,10.92
2018-10-05T06:49:38.201Z,10.95
2018-10-05T06:52:06.783Z,11.03
2018-10-05T06:54:35.368Z,11.14
2018-10-05T06:57:03.903Z,11.26
2018-10-05T06:59:32.482Z,11.34
2018-10-05T07:02:01.098Z,11.35
2018-10-05T07:04:30.195Z,11.60
2018-10-05T07:06:58.755Z,11.67
2018-10-05T07:09:27.376Z,11.71
2018-10-05T07:11:55.927Z,11.76
2018-10-05T07:14:24.525Z,11.91
2018-10-05T07:16:53.096Z,11.98
2018-10-05T07:19:21.644Z,12.06
2018-10-05T07:21:50.257Z,12.09
2018-10-05T07:24:18.822Z,12.13
2018-10-05T07:26:47.379Z,12.20
2018-10-05T07:29:15.899Z,12.30
2018-10-05T07:31:44.466Z,12.42
2018-10-05T07:34:13.127Z,12.45
2018-10-05T07:36:41.668Z,12.52
2018-10-05T07:39:10.930Z,12.63
2018-10-05T07:41:39.564Z,12.72
2018-10-05T07:44:09.026Z,12.71
2018-10-05T07:46:37.663Z,12.71
2018-10-05T07:49:06.283Z,12.86
2018-10-05T07:51:34.872Z,12.99
2018-10-05T07:54:03.475Z,13.01
2018-10-05T07:56:32.014Z,13.04
2018-10-05T07:59:00.552Z,13.17
2018-10-05T08:01:29.118Z,13.21
2018-10-05T08:03:57.666Z,13.31
2018-10-05T08:06:26.287Z,13.36
2018-10-05T08:08:54.837Z,13.35
2018-10-05T08:11:23.423Z,13.44
2018-10-05T08:13:52.005Z,13.40
2018-10-05T08:16:21.199Z,13.45
2018-10-05T08:18:49.747Z,13.46
2018-10-05T08:21:18.343Z,13.53
2018-10-05T08:23:46.831Z,13.61
2018-10-05T08:26:15.345Z,13.68
2018-10-05T08:28:43.920Z,13.79
2018-10-05T08:31:12.491Z,13.74
2018-10-05T08:33:41.114Z,13.86
2018-10-05T08:36:09.647Z,13.92
2018-10-05T08:38:38.249Z,14.02
2018-10-05T08:41:06.829Z,14.13
2018-10-05T08:43:35.383Z,14.25
2018-10-05T08:46:04.094Z,14.31
2018-10-05T08:48:32.629Z,14.33
2018-10-05T08:51:01.782Z,14.36
2018-10-05T08:53:30.360Z,14.48
2018-10-05T08:55:58.942Z,14.54
2018-10-05T08:58:27.515Z,14.62
2018-10-05T09:00:56.102Z,14.77
2018-10-05T09:03:24.714Z,14.94
2018-10-05T09:05:53.411Z,15.17
2018-10-05T09:08:22.043Z,15.30
2018-10-05T09:10:50.574Z,15.36
2018-10-05T09:13:19.162Z,15.39
2018-10-05T09:15:47.707Z,15.36
2018-10-05T09:18:16.370Z,15.48
2018-10-05T09:20:44.924Z,15.38
2018-10-05T09:23:13.438Z,15.53
2018-10-05T09:25:41.990Z,15.59
2018-10-05T09:28:10.530Z,15.67
2018-10-05T09:30:39.104Z,15.75
2018-10-05T09:33:08.727Z,15.79
2018-10-05T09:35:37.299Z,15.81
2018-10-05T09:38:05.844Z,15.87
2018-10-05T09:40:34.409Z,15.92
2018-10-05T09:43:02.968Z,16.05
2018-10-05T09:45:31.550Z,16.16
2018-10-05T09:48:00.216Z,16.28
2018-10-05T09:50:28.935Z,16.25
2018-10-05T09:52:58.231Z,16.35
2018-10-05T09:55:26.800Z,16.48
2018-10-05T09:57:55.350Z,16.62
2018-10-05T10:00:29.083Z,16.61
2018-10-05T10:03:00.683Z,16.66
2018-10-05T10:05:29.254Z,16.71
2018-10-05T10:07:57.946Z,16.79
2018-10-05T10:10:26.478Z,16.91
2018-10-05T10:12:55.034Z,17.10
2018-10-05T10:15:23.727Z,17.23
2018-10-05T10:17:52.376Z,17.26
2018-10-05T10:20:20.953Z,17.26
2018-10-05T10:22:49.587Z,17.35
2018-10-05T10:25:18.156Z,17.36
2018-10-05T10:27:46.854Z,17.31
2018-10-05T10:30:15.460Z,17.26
2018-10-05T10:32:44.052Z,17.43
2018-10-05T10:35:12.656Z,17.45
2018-10-05T10:37:41.236Z,17.64
2018-10-05T10:40:09.867Z,17.63
2018-10-05T10:42:38.511Z,17.74
2018-10-05T10:45:07.130Z,17.74
2018-10-05T10:47:35.904Z,17.76
2018-10-05T10:50:04.531Z,17.75
2018-10-05T10:52:33.095Z,17.85
2018-10-05T10:55:01.710Z,17.92
2018-10-05T10:57:30.288Z,17.96
2018-10-05T10:59:58.887Z,17.90
2018-10-05T11:02:27.434Z,17.91
2018-10-05T11:04:56.062Z,18.04
2018-10-05T11:07:24.659Z,17.98
2018-10-05T11:09:53.256Z,17.99
2018-10-05T11:12:21.783Z,18.14
2018-10-05T11:14:50.282Z,18.15
2018-10-05T11:17:18.834Z,18.18
2018-10-05T11:19:47.424Z,18.21
2018-10-05T11:22:15.963Z,18.34
2018-10-05T11:24:44.533Z,18.38
2018-10-05T11:27:13.031Z,18.39
2018-10-05T11:29:41.730Z,18.42
2018-10-05T11:32:10.518Z,18.40
2018-10-05T11:34:39.200Z,18.24
2018-10-05T11:37:07.898Z,18.32
2018-10-05T11:39:36.427Z,18.34
2018-10-05T11:42:04.994Z,18.42
2018-10-05T11:44:33.522Z,18.59
2018-10-05T11:47:02.063Z,18.74
2018-10-05T11:49:30.600Z,18.77
2018-10-05T11:51:59.232Z,18.75
2018-10-05T11:54:27.766Z,18.88
2018-10-05T11:56:56.337Z,18.96
2018-10-05T11:59:24.972Z,18.91
2018-10-05T12:01:53.562Z,18.99
2018-10-05T12:04:22.361Z,19.12
2018-10-05T12:06:50.963Z,19.13
2018-10-05T12:09:19.506Z,19.22
2018-10-05T12:11:48.155Z,19.30
2018-10-05T12:14:16.762Z,19.29
2018-10-05T12:16:45.334Z,19.41
2018-10-05T12:19:13.900Z,19.41
2018-10-05T12:21:42.428Z,19.31
2018-10-05T12:24:11.862Z,19.36
2018-10-05T12:26:40.411Z,19.33
2018-10-05T12:29:08.982Z,19.32
2018-10-05T12:31:37.583Z,19.17
2018-10-05T12:34:06.170Z,19.19
2018-10-05T12:36:34.728Z,19.36
2018-10-05T12:39:03.412Z,19.41
2018-10-05T12:41:32.059Z,19.45
2018-10-05T12:44:00.586Z,19.47
2018-10-05T12:46:29.143Z,19.61
2018-10-05T12:48:57.717Z,19.62
2018-10-05T12:51:26.257Z,19.56
2018-10-05T12:53:54.964Z,19.60
2018-10-05T12:56:23.635Z,19.70
2018-10-05T12:58:52.220Z,19.73
2018-10-05T13:01:21.136Z,19.71
2018-10-05T13:03:49.751Z,19.72
2018-10-05T13:06:18.324Z,19.76
2018-10-05T13:08:46.871Z,19.75
2018-10-05T13:11:15.367Z,19.79
2018-10-05T13:13:44.034Z,19.87
2018-10-05T13:16:12.633Z,19.84
2018-10-05T13:18:41.196Z,19.93
2018-10-05T13:21:09.808Z,19.92
2018-10-05T13:23:38.290Z,19.82
2018-10-05T13:26:07.202Z,19.98
2018-10-05T13:28:35.873Z,20.07
2018-10-05T13:31:04.443Z,20.05
2018-10-05T13:33:33.188Z,20.09
2018-10-05T13:36:02.069Z,20.08
2018-10-05T13:38:30.599Z,20.13
2018-10-05T13:40:59.168Z,20.10
2018-10-05T13:43:27.770Z,20.15
2018-10-05T13:45:56.324Z,20.19
2018-10-05T13:48:24.901Z,20.25
2018-10-05T13:50:53.521Z,20.24
2018-10-05T13:53:22.098Z,20.27
2018-10-05T13:55:51.683Z,20.22
2018-10-05T13:58:20.240Z,20.25
2018-10-05T14:00:48.853Z,20.31
2018-10-05T14:03:17.639Z,20.35
2018-10-05T14:05:46.195Z,20.28
2018-10-05T14:08:14.788Z,20.23
2018-10-05T14:10:43.614Z,20.20
2018-10-05T14:13:12.191Z,20.15
2018-10-05T14:15:40.727Z,20.26
2018-10-05T14:18:09.237Z,20.21
2018-10-05T14:20:37.837Z,20.23
2018-10-05T14:23:06.377Z,20.26
2018-10-05T14:25:35.120Z,20.28
2018-10-05T14:28:03.492Z,20.28
2018-10-05T14:30:32.094Z,20.12
2018-10-05T14:33:00.640Z,20.19
2018-10-05T14:35:29.204Z,20.20
2018-10-05T14:37:57.787Z,20.25
2018-10-05T14:40:26.259Z,20.23
2018-10-05T14:42:54.790Z,20.17
2018-10-05T14:45:23.322Z,20.20
2018-10-05T14:47:51.794Z,20.16
2018-10-05T14:50:20.377Z,20.18
2018-10-05T14:52:48.903Z,20.16
2018-10-05T14:55:17.484Z,20.18
2018-10-05T14:57:46.021Z,20.08
2018-10-05T15:00:14.626Z,20.11
2018-10-05T15:02:43.114Z,20.01
2018-10-05T15:05:11.675Z,20.06
2018-10-05T15:07:40.298Z,20.01
2018-10-05T15:10:08.867Z,20.06
2018-10-05T15:12:37.436Z,20.08
2018-10-05T15:15:06.732Z,20.04
2018-10-05T15:17:35.303Z,20.03
2018-10-05T15:20:03.862Z,19.95
2018-10-05T15:22:32.409Z,19.93
2018-10-05T15:25:00.877Z,19.87
2018-10-05T15:27:29.402Z,19.87
2018-10-05T15:29:57.921Z,19.83
2018-10-05T15:32:26.431Z,19.70
2018-10-05T15:34:54.969Z,19.63
2018-10-05T15:37:23.467Z,19.55
2018-10-05T15:39:51.962Z,19.52
2018-10-05T15:42:20.502Z,19.50
2018-10-05T15:44:49.153Z,19.30
2018-10-05T15:47:19.912Z,19.18
2018-10-05T15:49:48.468Z,19.15
2018-10-05T15:52:16.956Z,19.11
2018-10-05T15:54:45.453Z,19.02
2018-10-05T15:57:14.001Z,19.01
2018-10-05T15:59:42.497Z,18.95
2018-10-05T16:02:11.088Z,18.89
2018-10-05T16:04:39.593Z,18.82
2018-10-05T16:07:08.323Z,18.68
2018-10-05T16:09:36.865Z,18.66
2018-10-05T16:12:05.420Z,18.60
2018-10-05T16:14:34.108Z,18.36
2018-10-05T16:17:02.576Z,18.28
2018-10-05T16:19:31.228Z,18.17
2018-10-05T16:21:59.697Z,18.14
2018-10-05T16:24:37.623Z,18.02
2018-10-05T16:27:06.193Z,17.88
2018-10-05T16:29:35.186Z,17.74
2018-10-05T16:32:04.105Z,17.54
2018-10-05T16:34:32.990Z,17.36
2018-10-05T16:37:01.586Z,17.18
2018-10-05T16:39:30.112Z,17.08
2018-10-05T16:41:58.706Z,16.92
2018-10-05T16:44:27.609Z,16.77
2018-10-05T16:46:56.153Z,16.61
2018-10-05T16:49:24.649Z,16.42
2018-10-05T16:51:53.184Z,16.34
2018-10-05T16:54:21.856Z,16.41
2018-10-05T16:56:50.381Z,16.37
2018-10-05T16:59:18.901Z,16.25
2018-10-05T17:01:47.622Z,15.99
2018-10-05T17:04:16.195Z,15.77
2018-10-05T17:06:44.773Z,15.48
2018-10-05T17:09:14.098Z,15.31
2018-10-05T17:11:43.809Z,15.22
2018-10-05T17:14:12.373Z,15.10
2018-10-05T17:16:41.234Z,14.98
2018-10-05T17:19:09.743Z,14.89
2018-10-05T17:21:38.336Z,14.71
2018-10-05T17:24:06.998Z,14.48
2018-10-05T17:26:36.203Z,14.39
2018-10-05T17:29:04.780Z,14.23
2018-10-05T17:31:33.463Z,14.08
2018-10-05T17:34:02.093Z,13.98
2018-10-05T17:36:31.357Z,13.91
2018-10-05T17:38:59.975Z,13.75
2018-10-05T17:41:28.485Z,13.71
2018-10-05T17:43:57.094Z,13.65
2018-10-05T17:46:25.636Z,13.56
2018-10-05T17:48:54.194Z,13.55
2018-10-05T17:51:22.797Z,13.54
2018-10-05T17:53:51.366Z,13.58
2018-10-05T17:56:19.892Z,13.46
2018-10-05T17:58:48.465Z,13.34
2018-10-05T18:01:17.029Z,13.22
2018-10-05T18:03:45.582Z,13.14
2018-10-05T18:06:14.072Z,13.19
2018-10-05T18:08:42.781Z,13.06
2018-10-05T18:11:11.294Z,12.92
2018-10-05T18:13:39.773Z,12.84
2018-10-05T18:16:08.376Z,12.85
2018-10-05T18:18:36.905Z,12.98
2018-10-05T18:21:05.526Z,12.87
2018-10-05T18:23:34.035Z,12.71
2018-10-05T18:26:02.609Z,12.78
2018-10-05T18:28:31.131Z,12.83
2018-10-05T18:30:59.698Z,12.72
2018-10-05T18:33:28.219Z,12.61
2018-10-05T18:35:56.721Z,12.59
2018-10-05T18:38:25.263Z,12.43
2018-10-05T18:40:53.790Z,12.54
2018-10-05T18:43:22.330Z,12.67
2018-10-05T18:45:51.505Z,12.66
2018-10-05T18:48:20.197Z,12.61
2018-10-05T18:50:48.873Z,12.52
2018-10-05T18:53:17.431Z,12.45
2018-10-05T18:55:46.205Z,12.48
2018-10-05T18:58:14.755Z,12.43
2018-10-05T19:00:43.424Z,12.27
2018-10-05T19:03:11.917Z,12.21
2018-10-05T19:05:40.559Z,12.30
2018-10-05T19:08:09.089Z,12.36
2018-10-05T19:10:37.741Z,12.33
2018-10-05T19:13:06.353Z,12.31
2018-10-05T19:15:35.195Z,12.33
2018-10-05T19:18:03.722Z,12.17
2018-10-05T19:20:32.380Z,11.95
2018-10-05T19:23:00.896Z,11.86
2018-10-05T19:25:29.402Z,11.81
2018-10-05T19:27:58.073Z,11.77
2018-10-05T19:30:26.786Z,11.77
2018-10-05T19:32:55.417Z,11.68
2018-10-05T19:35:23.951Z,11.57
2018-10-05T19:37:52.505Z,11.62
2018-10-05T19:40:21.108Z,11.69
2018-10-05T19:42:50.785Z,11.70
2018-10-05T19:45:19.270Z,11.69
2018-10-05T19:47:48.515Z,11.61
2018-10-05T19:50:17.760Z,11.64
2018-10-05T19:52:46.335Z,11.72
2018-10-05T19:55:15.196Z,11.73
2018-10-05T19:57:43.911Z,11.68
2018-10-05T20:00:12.707Z,11.55
2018-10-05T20:02:41.336Z,11.59
2018-10-05T20:05:09.845Z,11.53
2018-10-05T20:07:38.502Z,11.49
2018-10-05T20:10:07.025Z,11.56
2018-10-05T20:12:35.583Z,11.60
2018-10-05T20:15:04.129Z,11.57
2018-10-05T20:17:32.776Z,11.47
2018-10-05T20:20:01.461Z,11.42
2018-10-05T20:22:30.132Z,11.45
2018-10-05T20:24:58.693Z,11.28
2018-10-05T20:27:27.197Z,11.26
2018-10-05T20:29:55.758Z,11.39
2018-10-05T20:32:24.546Z,11.34
2018-10-05T20:34:53.443Z,11.37
2018-10-05T20:37:22.125Z,11.37
2018-10-05T20:39:50.603Z,11.36
2018-10-05T20:42:19.256Z,11.36
2018-10-05T20:44:47.894Z,11.32
2018-10-05T20:47:16.482Z,11.33
2018-10-05T20:49:45.114Z,11.30
2018-10-05T20:52:13.652Z,11.17
2018-10-05T20:54:42.311Z,11.05
2018-10-05T20:57:10.986Z,11.01
2018-10-05T20:59:39.637Z,11.07
2018-10-05T21:02:08.975Z,11.12
2018-10-05T21:04:37.496Z,11.12
2018-10-05T21:07:06.185Z,11.25
2018-10-05T21:09:34.709Z,11.20
2018-10-05T21:12:03.934Z,11.21
2018-10-05T21:14:32.585Z,11.01
2018-10-05T21:17:01.078Z,10.94
2018-10-05T21:19:29.621Z,10.95
2018-10-05T21:21:58.249Z,10.90
2018-10-05T21:24:26.805Z,10.87
2018-10-05T21:27:02.061Z,10.81
2018-10-05T21:29:30.785Z,10.78
2018-10-05T21:31:59.717Z,10.86
2018-10-05T21:34:28.230Z,10.82
2018-10-05T21:36:56.725Z,10.83
2018-10-05T21:39:25.257Z,10.82
2018-10-05T21:41:53.773Z,10.81
2018-10-05T21:44:22.346Z,10.81
2018-10-05T21:46:50.845Z,10.81
2018-10-05T21:49:19.352Z,10.85
2018-10-05T21:51:47.918Z,10.81
2018-10-05T21:54:16.442Z,10.87
2018-10-05T21:56:44.897Z,10.89
2018-10-05T21:59:13.456Z,10.79
2018-10-05T22:01:41.976Z,10.63
2018-10-05T22:04:10.487Z,10.61
2018-10-05T22:06:38.989Z,10.63
2018-10-05T22:09:10.485Z,10.73
2018-10-05T22:11:39.240Z,10.68
2018-10-05T22:14:07.761Z,10.65
2018-10-05T22:16:36.217Z,10.56
2018-10-05T22:19:04.804Z,10.55
2018-10-05T22:21:33.253Z,10.55
2018-10-05T22:24:01.768Z,10.56
2018-10-05T22:26:30.304Z,10.56
2018-10-05T22:28:58.813Z,10.49
2018-10-05T22:31:27.288Z,10.51
2018-10-05T22:33:56.116Z,10.43
2018-10-05T22:36:24.707Z,10.42
2018-10-05T22:38:53.239Z,10.37
2018-10-05T22:41:21.816Z,10.37
2018-10-05T22:43:50.720Z,10.36
2018-10-05T22:46:19.859Z,10.34
2018-10-05T22:48:49.483Z,10.30
2018-10-05T22:51:18.130Z,10.30
2018-10-05T22:53:46.637Z,10.31
2018-10-05T22:56:15.109Z,10.31
2018-10-05T22:58:43.658Z,10.14
2018-10-05T23:01:12.158Z,10.21
2018-10-05T23:03:40.649Z,10.20
2018-10-05T23:06:09.122Z,10.23
2018-10-05T23:08:37.648Z,10.11
2018-10-05T23:11:06.291Z,9.97
2018-10-05T23:13:34.834Z,9.96
2018-10-05T23:16:03.372Z,9.90
2018-10-05T23:18:31.929Z,10.05
2018-10-05T23:21:00.403Z,10.11
2018-10-05T23:23:35.668Z,10.11
2018-10-05T23:26:04.196Z,10.21
2018-10-05T23:28:32.697Z,10.08
2018-10-05T23:31:01.211Z,10.01
2018-10-05T23:33:29.769Z,10.03
2018-10-05T23:35:58.314Z,10.05
2018-10-05T23:38:26.814Z,10.00
2018-10-05T23:40:55.361Z,9.96
2018-10-05T23:43:23.890Z,9.90
2018-10-05T23:45:52.379Z,9.82
2018-10-05T23:48:20.898Z,9.76
2018-10-05T23:50:49.369Z,9.85
2018-10-05T23:53:17.842Z,9.72
2018-10-05T23:55:46.333Z,9.63
2018-10-05T23:58:14.850Z,9.58
